sensor_id;sensor_type;location;lat;lon;timestamp;P1;durP1;ratioP1;P2;durP2;ratioP2
3733;SDS011;1882;52.256;8.874;2022-09-03T00:00:58;2.03;;;1.30;;
3733;SDS011;1882;52.256;8.874;2022-09-03T00:07:03;4.83;;;1.77;;
3733;SDS011;1882;52.256;8.874;2022-09-03T00:10:14;1.70;;;1.60;;
3733;SDS011;1882;52.256;8.874;2022-09-03T00:12:50;3.27;;;1.60;;
3733;SDS011;1882;52.256;8.874;2022-09-03T00:15:23;1.50;;;1.40;;
3733;SDS011;1882;52.256;8.874;2022-09-03T00:18:08;8.90;;;1.47;;
3733;SDS011;1882;52.256;8.874;2022-09-03T00:20:45;5.87;;;1.60;;
3733;SDS011;1882;52.256;8.874;2022-09-03T00:23:27;1.47;;;1.37;;
3733;SDS011;1882;52.256;8.874;2022-09-03T00:28:53;1.40;;;1.30;;
3733;SDS011;1882;52.256;8.874;2022-09-03T00:36:56;2.73;;;1.63;;
3733;SDS011;1882;52.256;8.874;2022-09-03T00:39:24;2.03;;;1.50;;
3733;SDS011;1882;52.256;8.874;2022-09-03T00:45:21;2.63;;;1.80;;
3733;SDS011;1882;52.256;8.874;2022-09-03T00:53:15;5.83;;;1.73;;
3733;SDS011;1882;52.256;8.874;2022-09-03T01:01:06;1.97;;;1.80;;
3733;SDS011;1882;52.256;8.874;2022-09-03T01:03:53;1.77;;;1.67;;
3733;SDS011;1882;52.256;8.874;2022-09-03T01:09:49;2.20;;;1.60;;
3733;SDS011;1882;52.256;8.874;2022-09-03T01:15:33;2.10;;;1.60;;
3733;SDS011;1882;52.256;8.874;2022-09-03T01:20:57;1.97;;;1.40;;
3733;SDS011;1882;52.256;8.874;2022-09-03T01:29:02;1.73;;;1.63;;
3733;SDS011;1882;52.256;8.874;2022-09-03T01:34:25;5.50;;;1.60;;
3733;SDS011;1882;52.256;8.874;2022-09-03T01:37:13;2.57;;;1.60;;
3733;SDS011;1882;52.256;8.874;2022-09-03T01:50:52;2.30;;;1.57;;
3733;SDS011;1882;52.256;8.874;2022-09-03T01:53:39;1.70;;;1.60;;
3733;SDS011;1882;52.256;8.874;2022-09-03T02:02:02;2.60;;;1.70;;
3733;SDS011;1882;52.256;8.874;2022-09-03T02:04:34;5.07;;;1.80;;
3733;SDS011;1882;52.256;8.874;2022-09-03T02:07:01;1.83;;;1.73;;
3733;SDS011;1882;52.256;8.874;2022-09-03T02:09:28;1.70;;;1.50;;
3733;SDS011;1882;52.256;8.874;2022-09-03T02:12:08;1.93;;;1.60;;
3733;SDS011;1882;52.256;8.874;2022-09-03T02:14:40;1.70;;;1.60;;
3733;SDS011;1882;52.256;8.874;2022-09-03T02:17:12;2.80;;;1.70;;
3733;SDS011;1882;52.256;8.874;2022-09-03T02:19:48;5.47;;;1.90;;
3733;SDS011;1882;52.256;8.874;2022-09-03T02:22:14;1.50;;;1.40;;
3733;SDS011;1882;52.256;8.874;2022-09-03T02:24:44;2.20;;;1.90;;
3733;SDS011;1882;52.256;8.874;2022-09-03T02:27:14;1.63;;;1.53;;
3733;SDS011;1882;52.256;8.874;2022-09-03T02:29:58;1.60;;;1.50;;
3733;SDS011;1882;52.256;8.874;2022-09-03T02:32:31;4.90;;;1.53;;
3733;SDS011;1882;52.256;8.874;2022-09-03T02:35:08;3.03;;;1.80;;
3733;SDS011;1882;52.256;8.874;2022-09-03T02:38:15;4.33;;;1.60;;
3733;SDS011;1882;52.256;8.874;2022-09-03T02:40:46;1.70;;;1.60;;
3733;SDS011;1882;52.256;8.874;2022-09-03T02:46:23;1.47;;;1.37;;
3733;SDS011;1882;52.256;8.874;2022-09-03T02:48:53;3.33;;;1.77;;
3733;SDS011;1882;52.256;8.874;2022-09-03T02:51:41;1.80;;;1.70;;
3733;SDS011;1882;52.256;8.874;2022-09-03T02:54:18;2.60;;;1.60;;
3733;SDS011;1882;52.256;8.874;2022-09-03T02:57:20;1.70;;;1.60;;
3733;SDS011;1882;52.256;8.874;2022-09-03T02:59:56;2.67;;;1.90;;
3733;SDS011;1882;52.256;8.874;2022-09-03T03:02:31;6.60;;;1.90;;
3733;SDS011;1882;52.256;8.874;2022-09-03T03:05:17;4.27;;;1.73;;
3733;SDS011;1882;52.256;8.874;2022-09-03T03:08:00;4.27;;;1.90;;
3733;SDS011;1882;52.256;8.874;2022-09-03T03:10:32;1.90;;;1.80;;
3733;SDS011;1882;52.256;8.874;2022-09-03T03:13:02;2.90;;;1.90;;
3733;SDS011;1882;52.256;8.874;2022-09-03T03:15:29;2.10;;;1.70;;
3733;SDS011;1882;52.256;8.874;2022-09-03T03:17:57;5.37;;;1.53;;
3733;SDS011;1882;52.256;8.874;2022-09-03T03:20:24;2.60;;;1.70;;
3733;SDS011;1882;52.256;8.874;2022-09-03T03:23:01;3.20;;;1.90;;
3733;SDS011;1882;52.256;8.874;2022-09-03T03:25:49;3.30;;;1.63;;
3733;SDS011;1882;52.256;8.874;2022-09-03T03:28:26;1.80;;;1.70;;
3733;SDS011;1882;52.256;8.874;2022-09-03T03:31:11;2.63;;;1.80;;
3733;SDS011;1882;52.256;8.874;2022-09-03T03:33:56;2.43;;;1.57;;
3733;SDS011;1882;52.256;8.874;2022-09-03T03:36:40;2.10;;;1.90;;
3733;SDS011;1882;52.256;8.874;2022-09-03T03:39:43;1.93;;;1.80;;
3733;SDS011;1882;52.256;8.874;2022-09-03T03:42:18;1.73;;;1.60;;
3733;SDS011;1882;52.256;8.874;2022-09-03T03:44:59;2.40;;;1.73;;
3733;SDS011;1882;52.256;8.874;2022-09-03T03:47:38;3.47;;;2.00;;
3733;SDS011;1882;52.256;8.874;2022-09-03T03:50:31;5.27;;;1.97;;
3733;SDS011;1882;52.256;8.874;2022-09-03T03:53:14;2.10;;;1.73;;
3733;SDS011;1882;52.256;8.874;2022-09-03T03:55:56;3.40;;;2.03;;
3733;SDS011;1882;52.256;8.874;2022-09-03T04:01:23;2.00;;;1.67;;
3733;SDS011;1882;52.256;8.874;2022-09-03T04:03:56;2.30;;;1.73;;
3733;SDS011;1882;52.256;8.874;2022-09-03T04:06:26;3.43;;;1.73;;
3733;SDS011;1882;52.256;8.874;2022-09-03T04:08:54;3.03;;;1.70;;
3733;SDS011;1882;52.256;8.874;2022-09-03T04:11:27;2.93;;;1.80;;
3733;SDS011;1882;52.256;8.874;2022-09-03T04:13:56;5.33;;;1.90;;
3733;SDS011;1882;52.256;8.874;2022-09-03T04:16:23;2.00;;;1.77;;
3733;SDS011;1882;52.256;8.874;2022-09-03T04:18:53;1.80;;;1.70;;
3733;SDS011;1882;52.256;8.874;2022-09-03T04:21:26;1.80;;;1.70;;
3733;SDS011;1882;52.256;8.874;2022-09-03T04:23:55;1.93;;;1.83;;
3733;SDS011;1882;52.256;8.874;2022-09-03T04:26:32;2.40;;;1.53;;
3733;SDS011;1882;52.256;8.874;2022-09-03T04:29:18;2.20;;;1.67;;
3733;SDS011;1882;52.256;8.874;2022-09-03T04:31:50;3.20;;;2.20;;
3733;SDS011;1882;52.256;8.874;2022-09-03T04:34:37;3.43;;;1.73;;
3733;SDS011;1882;52.256;8.874;2022-09-03T04:37:05;1.93;;;1.70;;
3733;SDS011;1882;52.256;8.874;2022-09-03T04:39:32;2.40;;;1.77;;
3733;SDS011;1882;52.256;8.874;2022-09-03T04:42:00;3.10;;;1.90;;
3733;SDS011;1882;52.256;8.874;2022-09-03T04:44:27;2.33;;;2.10;;
3733;SDS011;1882;52.256;8.874;2022-09-03T04:46:57;5.00;;;1.97;;
3733;SDS011;1882;52.256;8.874;2022-09-03T04:49:35;2.60;;;2.00;;
3733;SDS011;1882;52.256;8.874;2022-09-03T04:52:21;2.17;;;1.83;;
3733;SDS011;1882;52.256;8.874;2022-09-03T04:55:01;1.80;;;1.70;;
3733;SDS011;1882;52.256;8.874;2022-09-03T04:57:29;4.47;;;2.10;;
3733;SDS011;1882;52.256;8.874;2022-09-03T05:00:03;3.43;;;1.77;;
3733;SDS011;1882;52.256;8.874;2022-09-03T05:02:47;3.23;;;1.80;;
3733;SDS011;1882;52.256;8.874;2022-09-03T05:05:37;2.70;;;1.80;;
3733;SDS011;1882;52.256;8.874;2022-09-03T05:08:24;1.90;;;1.80;;
3733;SDS011;1882;52.256;8.874;2022-09-03T05:10:59;2.90;;;1.90;;
3733;SDS011;1882;52.256;8.874;2022-09-03T05:13:50;2.40;;;1.70;;
3733;SDS011;1882;52.256;8.874;2022-09-03T05:16:30;3.63;;;1.83;;
3733;SDS011;1882;52.256;8.874;2022-09-03T05:19:20;2.60;;;1.90;;
3733;SDS011;1882;52.256;8.874;2022-09-03T05:22:04;2.03;;;1.77;;
3733;SDS011;1882;52.256;8.874;2022-09-03T05:24:31;2.33;;;2.10;;
3733;SDS011;1882;52.256;8.874;2022-09-03T05:27:27;2.23;;;1.60;;
3733;SDS011;1882;52.256;8.874;2022-09-03T05:30:00;3.00;;;1.70;;
3733;SDS011;1882;52.256;8.874;2022-09-03T05:32:40;2.83;;;1.87;;
3733;SDS011;1882;52.256;8.874;2022-09-03T05:35:35;3.30;;;1.80;;
3733;SDS011;1882;52.256;8.874;2022-09-03T05:38:25;1.70;;;1.60;;
3733;SDS011;1882;52.256;8.874;2022-09-03T05:41:13;2.50;;;1.70;;
3733;SDS011;1882;52.256;8.874;2022-09-03T05:43:51;2.30;;;1.87;;
3733;SDS011;1882;52.256;8.874;2022-09-03T05:46:31;2.70;;;1.80;;
3733;SDS011;1882;52.256;8.874;2022-09-03T05:49:14;1.90;;;1.80;;
3733;SDS011;1882;52.256;8.874;2022-09-03T05:52:10;6.63;;;2.13;;
3733;SDS011;1882;52.256;8.874;2022-09-03T05:54:55;3.63;;;2.00;;
3733;SDS011;1882;52.256;8.874;2022-09-03T05:57:38;2.90;;;2.00;;
3733;SDS011;1882;52.256;8.874;2022-09-03T06:00:13;1.90;;;1.70;;
3733;SDS011;1882;52.256;8.874;2022-09-03T06:03:02;5.40;;;2.13;;
3733;SDS011;1882;52.256;8.874;2022-09-03T06:05:28;3.60;;;2.00;;
3733;SDS011;1882;52.256;8.874;2022-09-03T06:08:30;1.90;;;1.80;;
3733;SDS011;1882;52.256;8.874;2022-09-03T06:11:00;3.87;;;1.90;;
3733;SDS011;1882;52.256;8.874;2022-09-03T06:13:33;2.77;;;1.70;;
3733;SDS011;1882;52.256;8.874;2022-09-03T06:16:03;5.17;;;1.53;;
3733;SDS011;1882;52.256;8.874;2022-09-03T06:18:31;1.70;;;1.60;;
3733;SDS011;1882;52.256;8.874;2022-09-03T06:21:01;1.67;;;1.57;;
3733;SDS011;1882;52.256;8.874;2022-09-03T06:23:33;3.27;;;1.73;;
3733;SDS011;1882;52.256;8.874;2022-09-03T06:26:16;2.17;;;1.90;;
3733;SDS011;1882;52.256;8.874;2022-09-03T06:28:52;2.57;;;2.00;;
3733;SDS011;1882;52.256;8.874;2022-09-03T06:31:30;6.27;;;1.90;;
3733;SDS011;1882;52.256;8.874;2022-09-03T06:34:10;2.00;;;1.90;;
3733;SDS011;1882;52.256;8.874;2022-09-03T06:36:48;3.10;;;1.80;;
3733;SDS011;1882;52.256;8.874;2022-09-03T06:39:26;5.33;;;1.70;;
3733;SDS011;1882;52.256;8.874;2022-09-03T06:42:31;2.27;;;1.57;;
3733;SDS011;1882;52.256;8.874;2022-09-03T06:45:16;1.80;;;1.70;;
3733;SDS011;1882;52.256;8.874;2022-09-03T06:48:21;2.93;;;1.70;;
3733;SDS011;1882;52.256;8.874;2022-09-03T06:54:09;2.80;;;2.00;;
3733;SDS011;1882;52.256;8.874;2022-09-03T06:56:53;2.27;;;1.93;;
3733;SDS011;1882;52.256;8.874;2022-09-03T07:00:02;2.80;;;2.00;;
3733;SDS011;1882;52.256;8.874;2022-09-03T07:02:29;2.60;;;2.10;;
3733;SDS011;1882;52.256;8.874;2022-09-03T07:05:12;2.13;;;1.90;;
3733;SDS011;1882;52.256;8.874;2022-09-03T07:07:39;1.90;;;1.80;;
3733;SDS011;1882;52.256;8.874;2022-09-03T07:10:06;2.03;;;1.77;;
3733;SDS011;1882;52.256;8.874;2022-09-03T07:12:52;3.13;;;2.07;;
3733;SDS011;1882;52.256;8.874;2022-09-03T07:15:46;4.40;;;2.07;;
3733;SDS011;1882;52.256;8.874;2022-09-03T07:18:22;2.43;;;2.23;;
3733;SDS011;1882;52.256;8.874;2022-09-03T07:20:51;2.80;;;1.83;;
3733;SDS011;1882;52.256;8.874;2022-09-03T07:23:17;2.10;;;1.90;;
3733;SDS011;1882;52.256;8.874;2022-09-03T07:25:50;2.50;;;2.13;;
3733;SDS011;1882;52.256;8.874;2022-09-03T07:32:06;2.10;;;1.90;;
3733;SDS011;1882;52.256;8.874;2022-09-03T07:34:36;3.07;;;1.80;;
3733;SDS011;1882;52.256;8.874;2022-09-03T07:37:03;4.10;;;1.80;;
3733;SDS011;1882;52.256;8.874;2022-09-03T07:39:39;2.33;;;1.93;;
3733;SDS011;1882;52.256;8.874;2022-09-03T07:42:13;3.97;;;2.10;;
3733;SDS011;1882;52.256;8.874;2022-09-03T07:45:48;2.27;;;1.80;;
3733;SDS011;1882;52.256;8.874;2022-09-03T07:48:42;3.60;;;1.93;;
3733;SDS011;1882;52.256;8.874;2022-09-03T07:51:26;3.93;;;1.80;;
3733;SDS011;1882;52.256;8.874;2022-09-03T07:54:21;2.33;;;2.10;;
3733;SDS011;1882;52.256;8.874;2022-09-03T07:56:51;3.33;;;2.23;;
3733;SDS011;1882;52.256;8.874;2022-09-03T07:59:18;3.23;;;1.97;;
3733;SDS011;1882;52.256;8.874;2022-09-03T08:01:52;14.43;;;2.20;;
3733;SDS011;1882;52.256;8.874;2022-09-03T08:04:32;4.10;;;1.90;;
3733;SDS011;1882;52.256;8.874;2022-09-03T08:07:43;3.17;;;1.90;;
3733;SDS011;1882;52.256;8.874;2022-09-03T08:10:10;1.97;;;1.80;;
3733;SDS011;1882;52.256;8.874;2022-09-03T08:12:37;2.10;;;1.90;;
3733;SDS011;1882;52.256;8.874;2022-09-03T08:15:21;5.70;;;2.07;;
3733;SDS011;1882;52.256;8.874;2022-09-03T08:18:05;3.03;;;1.93;;
3733;SDS011;1882;52.256;8.874;2022-09-03T08:20:32;2.97;;;1.90;;
3733;SDS011;1882;52.256;8.874;2022-09-03T08:23:24;2.80;;;1.80;;
3733;SDS011;1882;52.256;8.874;2022-09-03T08:26:10;2.23;;;1.80;;
3733;SDS011;1882;52.256;8.874;2022-09-03T08:28:51;1.97;;;1.53;;
3733;SDS011;1882;52.256;8.874;2022-09-03T08:31:34;1.93;;;1.83;;
3733;SDS011;1882;52.256;8.874;2022-09-03T08:34:05;2.23;;;1.60;;
3733;SDS011;1882;52.256;8.874;2022-09-03T08:39:52;2.50;;;1.80;;
3733;SDS011;1882;52.256;8.874;2022-09-03T08:42:34;3.10;;;1.80;;
3733;SDS011;1882;52.256;8.874;2022-09-03T08:45:17;4.33;;;2.10;;
3733;SDS011;1882;52.256;8.874;2022-09-03T08:47:53;1.80;;;1.70;;
3733;SDS011;1882;52.256;8.874;2022-09-03T08:50:45;3.20;;;2.10;;
3733;SDS011;1882;52.256;8.874;2022-09-03T08:56:23;5.90;;;1.90;;
3733;SDS011;1882;52.256;8.874;2022-09-03T08:59:14;1.73;;;1.63;;
3733;SDS011;1882;52.256;8.874;2022-09-03T09:08:37;9.13;;;2.20;;
3733;SDS011;1882;52.256;8.874;2022-09-03T09:11:28;3.90;;;1.80;;
3733;SDS011;1882;52.256;8.874;2022-09-03T09:20:55;3.47;;;2.00;;
3733;SDS011;1882;52.256;8.874;2022-09-03T09:23:29;3.60;;;2.00;;
3733;SDS011;1882;52.256;8.874;2022-09-03T09:29:55;7.30;;;2.00;;
3733;SDS011;1882;52.256;8.874;2022-09-03T09:32:33;2.43;;;1.90;;
3733;SDS011;1882;52.256;8.874;2022-09-03T09:35:22;2.50;;;1.97;;
3733;SDS011;1882;52.256;8.874;2022-09-03T09:37:55;2.00;;;1.80;;
3733;SDS011;1882;52.256;8.874;2022-09-03T09:44:17;1.77;;;1.67;;
3733;SDS011;1882;52.256;8.874;2022-09-03T09:46:59;5.00;;;2.00;;
3733;SDS011;1882;52.256;8.874;2022-09-03T09:53:08;4.73;;;2.10;;
3733;SDS011;1882;52.256;8.874;2022-09-03T09:56:32;2.63;;;2.20;;
3733;SDS011;1882;52.256;8.874;2022-09-03T10:02:46;2.07;;;1.87;;
3733;SDS011;1882;52.256;8.874;2022-09-03T10:05:55;5.90;;;1.70;;
3733;SDS011;1882;52.256;8.874;2022-09-03T10:09:27;4.13;;;2.00;;
3733;SDS011;1882;52.256;8.874;2022-09-03T10:12:07;5.43;;;1.80;;
3733;SDS011;1882;52.256;8.874;2022-09-03T10:28:29;4.60;;;1.90;;
3733;SDS011;1882;52.256;8.874;2022-09-03T10:34:05;16.70;;;2.50;;
3733;SDS011;1882;52.256;8.874;2022-09-03T10:46:01;4.33;;;2.00;;
3733;SDS011;1882;52.256;8.874;2022-09-03T11:07:06;2.60;;;1.80;;
3733;SDS011;1882;52.256;8.874;2022-09-03T11:10:08;2.80;;;1.80;;
3733;SDS011;1882;52.256;8.874;2022-09-03T11:13:29;2.80;;;1.90;;
3733;SDS011;1882;52.256;8.874;2022-09-03T11:19:06;2.03;;;1.93;;
3733;SDS011;1882;52.256;8.874;2022-09-03T11:21:53;2.50;;;1.90;;
3733;SDS011;1882;52.256;8.874;2022-09-03T11:24:26;3.50;;;2.10;;
3733;SDS011;1882;52.256;8.874;2022-09-03T11:27:22;2.13;;;1.93;;
3733;SDS011;1882;52.256;8.874;2022-09-03T11:30:05;3.90;;;2.13;;
3733;SDS011;1882;52.256;8.874;2022-09-03T11:32:50;4.30;;;1.90;;
3733;SDS011;1882;52.256;8.874;2022-09-03T11:35:57;3.40;;;1.90;;
3733;SDS011;1882;52.256;8.874;2022-09-03T11:38:49;3.10;;;1.90;;
3733;SDS011;1882;52.256;8.874;2022-09-03T11:48:17;6.27;;;1.97;;
3733;SDS011;1882;52.256;8.874;2022-09-03T11:50:55;5.80;;;1.90;;
3733;SDS011;1882;52.256;8.874;2022-09-03T11:53:26;4.60;;;2.10;;
3733;SDS011;1882;52.256;8.874;2022-09-03T11:56:00;2.80;;;1.90;;
3733;SDS011;1882;52.256;8.874;2022-09-03T11:58:42;2.70;;;2.07;;
3733;SDS011;1882;52.256;8.874;2022-09-03T12:01:10;2.60;;;1.93;;
3733;SDS011;1882;52.256;8.874;2022-09-03T12:03:42;2.00;;;1.80;;
3733;SDS011;1882;52.256;8.874;2022-09-03T12:20:10;2.00;;;1.90;;
3733;SDS011;1882;52.256;8.874;2022-09-03T12:22:39;2.50;;;2.20;;
3733;SDS011;1882;52.256;8.874;2022-09-03T12:25:07;3.77;;;1.80;;
3733;SDS011;1882;52.256;8.874;2022-09-03T12:27:37;1.83;;;1.73;;
3733;SDS011;1882;52.256;8.874;2022-09-03T12:30:04;2.60;;;1.93;;
3733;SDS011;1882;52.256;8.874;2022-09-03T12:32:40;2.13;;;2.03;;
3733;SDS011;1882;52.256;8.874;2022-09-03T12:35:12;2.10;;;2.00;;
3733;SDS011;1882;52.256;8.874;2022-09-03T12:38:07;3.97;;;1.83;;
3733;SDS011;1882;52.256;8.874;2022-09-03T12:40:41;4.13;;;2.50;;
3733;SDS011;1882;52.256;8.874;2022-09-03T12:43:28;4.20;;;2.00;;
3733;SDS011;1882;52.256;8.874;2022-09-03T12:46:12;2.13;;;2.03;;
3733;SDS011;1882;52.256;8.874;2022-09-03T12:48:45;5.63;;;2.20;;
3733;SDS011;1882;52.256;8.874;2022-09-03T12:51:39;2.00;;;1.90;;
3733;SDS011;1882;52.256;8.874;2022-09-03T12:54:21;2.87;;;2.00;;
3733;SDS011;1882;52.256;8.874;2022-09-03T12:56:51;3.50;;;2.03;;
3733;SDS011;1882;52.256;8.874;2022-09-03T12:59:20;2.73;;;2.20;;
3733;SDS011;1882;52.256;8.874;2022-09-03T13:01:49;2.40;;;1.90;;
3733;SDS011;1882;52.256;8.874;2022-09-03T13:04:28;2.70;;;1.80;;
3733;SDS011;1882;52.256;8.874;2022-09-03T13:09:32;2.20;;;1.60;;
3733;SDS011;1882;52.256;8.874;2022-09-03T13:12:01;5.00;;;1.90;;
3733;SDS011;1882;52.256;8.874;2022-09-03T13:14:45;2.33;;;2.10;;
3733;SDS011;1882;52.256;8.874;2022-09-03T13:34:00;2.33;;;2.00;;
3733;SDS011;1882;52.256;8.874;2022-09-03T13:36:22;2.40;;;2.20;;
3733;SDS011;1882;52.256;8.874;2022-09-03T13:46:44;4.30;;;2.17;;
3733;SDS011;1882;52.256;8.874;2022-09-03T13:49:21;1.97;;;1.87;;
3733;SDS011;1882;52.256;8.874;2022-09-03T13:52:19;3.47;;;2.30;;
3733;SDS011;1882;52.256;8.874;2022-09-03T13:54:54;2.70;;;2.20;;
3733;SDS011;1882;52.256;8.874;2022-09-03T13:57:25;3.70;;;2.17;;
3733;SDS011;1882;52.256;8.874;2022-09-03T14:00:07;5.70;;;2.20;;
3733;SDS011;1882;52.256;8.874;2022-09-03T14:02:54;7.20;;;2.30;;
3733;SDS011;1882;52.256;8.874;2022-09-03T14:05:48;3.50;;;2.40;;
3733;SDS011;1882;52.256;8.874;2022-09-03T14:08:39;2.30;;;2.10;;
3733;SDS011;1882;52.256;8.874;2022-09-03T14:11:32;2.73;;;2.17;;
3733;SDS011;1882;52.256;8.874;2022-09-03T14:19:31;1.93;;;1.83;;
3733;SDS011;1882;52.256;8.874;2022-09-03T14:22:03;3.30;;;1.90;;
3733;SDS011;1882;52.256;8.874;2022-09-03T14:27:21;2.30;;;2.10;;
3733;SDS011;1882;52.256;8.874;2022-09-03T14:30:02;3.60;;;3.20;;
3733;SDS011;1882;52.256;8.874;2022-09-03T14:37:47;3.47;;;2.60;;
3733;SDS011;1882;52.256;8.874;2022-09-03T14:43:39;7.13;;;2.27;;
3733;SDS011;1882;52.256;8.874;2022-09-03T14:48:59;3.80;;;2.27;;
3733;SDS011;1882;52.256;8.874;2022-09-03T14:54:58;3.73;;;2.20;;
3733;SDS011;1882;52.256;8.874;2022-09-03T15:03:15;6.50;;;2.13;;
3733;SDS011;1882;52.256;8.874;2022-09-03T15:11:00;3.53;;;1.83;;
3733;SDS011;1882;52.256;8.874;2022-09-03T15:13:29;2.03;;;1.90;;
3733;SDS011;1882;52.256;8.874;2022-09-03T15:24:54;4.43;;;2.20;;
3733;SDS011;1882;52.256;8.874;2022-09-03T15:30:18;2.80;;;1.97;;
3733;SDS011;1882;52.256;8.874;2022-09-03T15:32:56;2.20;;;2.00;;
3733;SDS011;1882;52.256;8.874;2022-09-03T15:35:59;3.07;;;2.00;;
3733;SDS011;1882;52.256;8.874;2022-09-03T15:44:14;3.43;;;1.90;;
3733;SDS011;1882;52.256;8.874;2022-09-03T15:46:52;5.40;;;2.00;;
3733;SDS011;1882;52.256;8.874;2022-09-03T15:52:14;7.23;;;2.40;;
3733;SDS011;1882;52.256;8.874;2022-09-03T15:55:07;2.17;;;2.03;;
3733;SDS011;1882;52.256;8.874;2022-09-03T16:00:30;2.23;;;2.03;;
3733;SDS011;1882;52.256;8.874;2022-09-03T16:03:11;3.90;;;2.07;;
3733;SDS011;1882;52.256;8.874;2022-09-03T16:05:51;2.27;;;2.07;;
3733;SDS011;1882;52.256;8.874;2022-09-03T16:08:54;7.07;;;2.03;;
3733;SDS011;1882;52.256;8.874;2022-09-03T16:14:42;4.70;;;1.80;;
3733;SDS011;1882;52.256;8.874;2022-09-03T16:20:24;2.63;;;1.97;;
3733;SDS011;1882;52.256;8.874;2022-09-03T16:23:09;2.13;;;1.80;;
3733;SDS011;1882;52.256;8.874;2022-09-03T16:28:28;2.00;;;1.90;;
3733;SDS011;1882;52.256;8.874;2022-09-03T17:12:42;3.50;;;2.00;;
3733;SDS011;1882;52.256;8.874;2022-09-03T17:23:54;8.83;;;4.33;;
3733;SDS011;1882;52.256;8.874;2022-09-03T17:43:14;2.60;;;2.00;;
3733;SDS011;1882;52.256;8.874;2022-09-03T17:54:08;2.07;;;1.97;;
3733;SDS011;1882;52.256;8.874;2022-09-03T18:05:00;8.93;;;2.33;;
3733;SDS011;1882;52.256;8.874;2022-09-03T18:11:26;5.07;;;2.37;;
3733;SDS011;1882;52.256;8.874;2022-09-03T18:14:19;4.70;;;2.50;;
3733;SDS011;1882;52.256;8.874;2022-09-03T18:17:00;2.57;;;2.30;;
3733;SDS011;1882;52.256;8.874;2022-09-03T18:22:21;4.33;;;2.30;;
3733;SDS011;1882;52.256;8.874;2022-09-03T18:25:12;2.30;;;2.10;;
3733;SDS011;1882;52.256;8.874;2022-09-03T18:27:59;2.50;;;2.30;;
3733;SDS011;1882;52.256;8.874;2022-09-03T18:30:51;3.40;;;2.20;;
3733;SDS011;1882;52.256;8.874;2022-09-03T18:33:36;5.50;;;2.40;;
3733;SDS011;1882;52.256;8.874;2022-09-03T18:36:22;2.77;;;2.40;;
3733;SDS011;1882;52.256;8.874;2022-09-03T18:39:18;5.47;;;2.80;;
3733;SDS011;1882;52.256;8.874;2022-09-03T18:51:56;4.37;;;2.63;;
3733;SDS011;1882;52.256;8.874;2022-09-03T19:00:45;3.63;;;2.90;;
3733;SDS011;1882;52.256;8.874;2022-09-03T19:03:42;2.40;;;2.20;;
3733;SDS011;1882;52.256;8.874;2022-09-03T19:09:40;3.53;;;2.50;;
3733;SDS011;1882;52.256;8.874;2022-09-03T19:12:46;2.77;;;2.57;;
3733;SDS011;1882;52.256;8.874;2022-09-03T19:16:20;4.40;;;2.60;;
3733;SDS011;1882;52.256;8.874;2022-09-03T19:22:03;4.00;;;2.53;;
3733;SDS011;1882;52.256;8.874;2022-09-03T19:25:01;3.60;;;2.73;;
3733;SDS011;1882;52.256;8.874;2022-09-03T19:49:38;8.33;;;2.90;;
3733;SDS011;1882;52.256;8.874;2022-09-03T19:55:35;4.70;;;2.80;;
3733;SDS011;1882;52.256;8.874;2022-09-03T19:58:23;4.03;;;2.50;;
3733;SDS011;1882;52.256;8.874;2022-09-03T20:01:10;4.17;;;2.50;;
3733;SDS011;1882;52.256;8.874;2022-09-03T20:04:13;2.60;;;2.40;;
3733;SDS011;1882;52.256;8.874;2022-09-03T20:06:59;2.37;;;2.17;;
3733;SDS011;1882;52.256;8.874;2022-09-03T20:09:47;3.50;;;2.60;;
3733;SDS011;1882;52.256;8.874;2022-09-03T20:12:37;3.53;;;2.33;;
3733;SDS011;1882;52.256;8.874;2022-09-03T20:15:06;2.53;;;2.30;;
3733;SDS011;1882;52.256;8.874;2022-09-03T20:22:55;3.43;;;2.73;;
3733;SDS011;1882;52.256;8.874;2022-09-03T20:28:15;6.97;;;2.53;;
3733;SDS011;1882;52.256;8.874;2022-09-03T20:36:30;2.57;;;2.37;;
3733;SDS011;1882;52.256;8.874;2022-09-03T20:39:13;3.60;;;2.27;;
3733;SDS011;1882;52.256;8.874;2022-09-03T20:44:57;5.90;;;2.30;;
3733;SDS011;1882;52.256;8.874;2022-09-03T21:01:06;6.33;;;2.30;;
3733;SDS011;1882;52.256;8.874;2022-09-03T21:03:43;6.00;;;2.57;;
3733;SDS011;1882;52.256;8.874;2022-09-03T21:20:07;3.77;;;2.50;;
3733;SDS011;1882;52.256;8.874;2022-09-03T21:25:39;3.10;;;2.67;;
3733;SDS011;1882;52.256;8.874;2022-09-03T21:28:11;5.30;;;2.50;;
3733;SDS011;1882;52.256;8.874;2022-09-03T21:30:42;3.40;;;2.47;;
3733;SDS011;1882;52.256;8.874;2022-09-03T21:33:22;3.27;;;2.17;;
3733;SDS011;1882;52.256;8.874;2022-09-03T21:38:27;4.67;;;2.40;;
3733;SDS011;1882;52.256;8.874;2022-09-03T21:41:01;6.13;;;2.60;;
3733;SDS011;1882;52.256;8.874;2022-09-03T21:43:44;4.40;;;2.50;;
3733;SDS011;1882;52.256;8.874;2022-09-03T21:46:18;3.30;;;2.80;;
3733;SDS011;1882;52.256;8.874;2022-09-03T21:48:57;5.30;;;2.93;;
3733;SDS011;1882;52.256;8.874;2022-09-03T22:02:38;4.63;;;2.80;;
3733;SDS011;1882;52.256;8.874;2022-09-03T22:05:06;5.67;;;2.60;;
3733;SDS011;1882;52.256;8.874;2022-09-03T22:18:45;4.03;;;2.90;;
3733;SDS011;1882;52.256;8.874;2022-09-03T22:21:19;4.27;;;3.13;;
3733;SDS011;1882;52.256;8.874;2022-09-03T22:24:00;4.63;;;2.70;;
3733;SDS011;1882;52.256;8.874;2022-09-03T22:40:24;3.87;;;2.90;;
3733;SDS011;1882;52.256;8.874;2022-09-03T22:45:40;5.97;;;3.33;;
3733;SDS011;1882;52.256;8.874;2022-09-03T22:51:05;5.20;;;3.00;;
3733;SDS011;1882;52.256;8.874;2022-09-03T22:56:39;4.03;;;2.70;;
3733;SDS011;1882;52.256;8.874;2022-09-03T22:59:17;3.27;;;2.83;;
3733;SDS011;1882;52.256;8.874;2022-09-03T23:04:46;3.17;;;2.87;;
3733;SDS011;1882;52.256;8.874;2022-09-03T23:07:18;5.23;;;2.90;;
3733;SDS011;1882;52.256;8.874;2022-09-03T23:09:52;4.70;;;2.93;;
3733;SDS011;1882;52.256;8.874;2022-09-03T23:15:03;4.60;;;3.00;;
3733;SDS011;1882;52.256;8.874;2022-09-03T23:17:37;3.77;;;2.93;;
3733;SDS011;1882;52.256;8.874;2022-09-03T23:20:18;9.30;;;2.77;;
3733;SDS011;1882;52.256;8.874;2022-09-03T23:22:58;4.47;;;3.00;;
3733;SDS011;1882;52.256;8.874;2022-09-03T23:25:48;4.00;;;2.97;;
3733;SDS011;1882;52.256;8.874;2022-09-03T23:28:40;4.87;;;3.07;;
3733;SDS011;1882;52.256;8.874;2022-09-03T23:33:45;5.13;;;3.17;;
3733;SDS011;1882;52.256;8.874;2022-09-03T23:36:18;7.07;;;2.70;;
3733;SDS011;1882;52.256;8.874;2022-09-03T23:42:50;5.23;;;2.97;;
3733;SDS011;1882;52.256;8.874;2022-09-03T23:46:00;8.53;;;2.97;;
3733;SDS011;1882;52.256;8.874;2022-09-03T23:57:44;5.80;;;3.20;;
